メインページ
METAR-TAF:

METAR-TAF

空港 :

ピッツバーグ, ペンシルバニア州, アメリカ合衆国

ピッツバーグ国際空港

緯度: 40-30-14N, 経度: 080-15-59W, 海抜: 366m

現時点の気象観測

当レポートは52分前の18:51(UTC)に作成
北西の風 10kt
気温 22°C
湿度 50%
気圧 1021 hPa
視程: 16.1km
高度5500ftの千切れ雲あり
高度15000ftの曇り

METAR: KPIT 251851Z 31010KT 10SM BKN055 OVC150 22/11 A3015 RMK AO2 SLP211 T02220106

時間: 15:43 (19:43 UTC)

予報

当レポートは27分前の19:16(UTC)に作成
予報は25日の 19時(UTC)から 26日の 24時(UTC)まで有効
北/北西の風 10kt
視程: 10km
高度5000ftの千切れ雲あり
25日の 2000時(UTC)から
北/北東の風 10kt
視程: 10km
高度5000ftの千切れ雲あり
25日の 2300時(UTC)から
変向風 4kt
視程: 10km
高度9000ftの千切れ雲あり
26日の 1300時(UTC)から
東/南東の風 7kt
視程: 10km
高度5000ftの曇り
26日の 1600時(UTC)から
南/南東の風 9kt
視程: 10km
高度5000ftの曇り
近辺でにわか雨

TAF: KPIT 251916Z 2519/2624 33010KT P6SM BKN050 FM252000 02010KT P6SM BKN050 FM252300 VRB04KT P6SM BKN090 FM261300 12007KT P6SM OVC050 FM261600 15009KT P6SM VCSH OVC050

4,000以上の空港の気象観測と天気予報(METAR報とTAF報)

利用可能な観測所は地図上に黄色い丸と赤い丸で示す。

丸の上にカーソルを重ねると観測所名を参照できる。

次にクリックすると気象観測と天気予報を参照できる。

マップの切り替え:黒色「×」印の緑ボタンをクリックして拡大、「-」印の緑ボタンをクリックして縮小、緑色の三角印をクリックして隣りの地図に切り替え


METAR-TAF: